Time;durP1;ratioP1;P1;durP2;ratioP2;P2;SDS_P1;SDS_P2;PMS_P1;PMS_P2;Temp;Humidity;BMP_temperature;BMP_pressure;BME280_temperature;BME280_humidity;BME280_pressure;Samples;Min_cycle;Max_cycle;Signal;HPM_P1;HPM_P2
2022/11/09 00:01:37;;;;;;;3.10;2.80;;;;;;;;;;5074949;28;20454;-60
2022/11/09 00:04:06;;;;;;;3.60;2.70;;;;;;;;;;5075116;28;20466;-61
2022/11/09 00:06:34;;;;;;;3.87;2.77;;;;;;;;;;5075028;28;20479;-60
2022/11/09 00:09:02;;;;;;;4.00;2.90;;;;;;;;;;5074818;28;20454;-60
2022/11/09 00:11:29;;;;;;;2.60;2.40;;;;;;;;;;5074001;28;20541;-59
2022/11/09 00:13:57;;;;;;;3.30;2.83;;;;;;;;;;5074613;28;20479;-60
2022/11/09 00:16:24;;;;;;;4.10;2.93;;;;;;;;;;5074811;28;20929;-60
2022/11/09 00:18:52;;;;;;;2.83;2.63;;;;;;;;;;5074775;28;20448;-60
2022/11/09 00:21:20;;;;;;;2.80;2.60;;;;;;;;;;5074729;28;20496;-60
2022/11/09 00:23:49;;;;;;;3.07;2.87;;;;;;;;;;5074539;28;21003;-60
2022/11/09 00:26:19;;;;;;;2.73;2.53;;;;;;;;;;5074693;28;20451;-60
2022/11/09 00:28:46;;;;;;;3.10;2.90;;;;;;;;;;5074388;28;20450;-60
2022/11/09 00:31:16;;;;;;;3.40;3.20;;;;;;;;;;5074853;28;20945;-60
2022/11/09 00:33:43;;;;;;;3.30;2.70;;;;;;;;;;5074374;28;20486;-60
2022/11/09 00:36:11;;;;;;;2.60;2.40;;;;;;;;;;5074221;28;20454;-60
2022/11/09 00:38:41;;;;;;;2.70;2.50;;;;;;;;;;5074299;28;20548;-60
2022/11/09 00:41:11;;;;;;;4.97;2.97;;;;;;;;;;5074229;28;20541;-59
2022/11/09 00:43:38;;;;;;;3.70;2.80;;;;;;;;;;5074334;28;20481;-60
2022/11/09 00:46:05;;;;;;;3.27;2.97;;;;;;;;;;5074216;28;20545;-60
2022/11/09 00:48:33;;;;;;;5.70;3.03;;;;;;;;;;5074014;28;20996;-59
2022/11/09 00:51:00;;;;;;;2.40;2.20;;;;;;;;;;5074029;28;20789;-59
2022/11/09 00:53:30;;;;;;;2.90;2.70;;;;;;;;;;5073919;28;20832;-59
2022/11/09 00:55:57;;;;;;;3.47;2.30;;;;;;;;;;5073904;28;20485;-59
2022/11/09 00:58:24;;;;;;;2.93;2.43;;;;;;;;;;5074028;28;20480;-59
2022/11/09 01:00:52;;;;;;;4.57;3.30;;;;;;;;;;5073962;28;20453;-59
2022/11/09 01:03:19;;;;;;;3.13;2.50;;;;;;;;;;5073845;28;20906;-59
2022/11/09 01:05:47;;;;;;;2.47;2.30;;;;;;;;;;5073821;28;20481;-59
2022/11/09 01:08:14;;;;;;;3.10;2.80;;;;;;;;;;5073724;28;20454;-59
2022/11/09 01:10:42;;;;;;;3.37;2.70;;;;;;;;;;5073835;28;20450;-59
2022/11/09 01:13:09;;;;;;;3.77;3.10;;;;;;;;;;5073763;28;20983;-59
2022/11/09 01:15:40;;;;;;;4.13;2.83;;;;;;;;;;5073728;28;20444;-59
2022/11/09 01:18:07;;;;;;;3.43;2.30;;;;;;;;;;5073874;28;20440;-59
2022/11/09 01:20:34;;;;;;;3.10;2.80;;;;;;;;;;5073468;28;20836;-59
2022/11/09 01:23:02;;;;;;;2.93;2.53;;;;;;;;;;5073302;28;20449;-59
2022/11/09 01:25:29;;;;;;;2.93;2.60;;;;;;;;;;5073577;28;20537;-60
2022/11/09 01:27:55;;;;;;;2.57;2.37;;;;;;;;;;5073443;28;20455;-60
2022/11/09 01:30:22;;;;;;;2.73;2.50;;;;;;;;;;5073353;28;20456;-60
2022/11/09 01:32:49;;;;;;;2.77;2.57;;;;;;;;;;5073478;28;20482;-59
2022/11/09 01:35:16;;;;;;;4.00;2.53;;;;;;;;;;5073226;28;20813;-59
2022/11/09 01:37:43;;;;;;;3.00;2.53;;;;;;;;;;5073333;28;20455;-59
2022/11/09 01:40:12;;;;;;;3.47;3.03;;;;;;;;;;5073333;28;20452;-60
2022/11/09 01:42:40;;;;;;;2.90;2.70;;;;;;;;;;5073228;28;20479;-60
2022/11/09 01:45:24;;;;;;;6.30;3.80;;;;;;;;;;5073172;28;20544;-59
2022/11/09 01:47:53;;;;;;;4.43;2.90;;;;;;;;;;5072719;28;20472;-59
2022/11/09 01:50:23;;;;;;;2.83;2.63;;;;;;;;;;5073221;28;20505;-60
2022/11/09 01:52:50;;;;;;;3.60;2.50;;;;;;;;;;5073017;28;20476;-59
2022/11/09 01:55:19;;;;;;;6.00;2.70;;;;;;;;;;5072905;28;20453;-59
2022/11/09 01:57:50;;;;;;;2.50;2.30;;;;;;;;;;5072952;28;20454;-60
2022/11/09 02:00:17;;;;;;;3.73;2.63;;;;;;;;;;5072809;28;20464;-60
2022/11/09 02:02:46;;;;;;;7.60;2.23;;;;;;;;;;5073060;28;20452;-59
2022/11/09 02:05:16;;;;;;;3.60;2.80;;;;;;;;;;5072976;28;20454;-59
2022/11/09 02:07:43;;;;;;;3.37;2.50;;;;;;;;;;5072702;28;21021;-59
2022/11/09 02:10:15;;;;;;;3.53;2.80;;;;;;;;;;5072836;28;20816;-59
2022/11/09 02:12:43;;;;;;;5.30;2.57;;;;;;;;;;5072617;28;20990;-59
2022/11/09 02:15:11;;;;;;;2.53;2.27;;;;;;;;;;5073011;28;20808;-59
2022/11/09 02:17:38;;;;;;;4.63;2.67;;;;;;;;;;5072846;28;20532;-59
2022/11/09 02:20:11;;;;;;;3.20;2.90;;;;;;;;;;5072866;28;20451;-59
2022/11/09 02:22:38;;;;;;;3.30;2.40;;;;;;;;;;5072779;28;20450;-59
2022/11/09 02:25:06;;;;;;;2.37;2.13;;;;;;;;;;5072673;28;20448;-59
2022/11/09 02:27:33;;;;;;;3.10;2.80;;;;;;;;;;5072487;28;20539;-59
2022/11/09 02:30:01;;;;;;;3.07;2.80;;;;;;;;;;5072790;28;20444;-59
2022/11/09 02:32:28;;;;;;;2.87;2.60;;;;;;;;;;5072735;28;20532;-59
2022/11/09 02:34:56;;;;;;;2.73;2.47;;;;;;;;;;5076339;28;20489;-59
2022/11/09 02:37:32;;;;;;;2.13;2.03;;;;;;;;;;5076573;28;20452;-60
2022/11/09 02:40:00;;;;;;;3.60;2.50;;;;;;;;;;5076485;28;20957;-59
2022/11/09 02:42:27;;;;;;;2.80;2.60;;;;;;;;;;5076713;28;20559;-60
2022/11/09 02:44:57;;;;;;;3.80;2.53;;;;;;;;;;5076605;28;20802;-60
2022/11/09 02:47:24;;;;;;;2.93;2.40;;;;;;;;;;5076335;28;20482;-59
2022/11/09 02:49:51;;;;;;;2.10;2.00;;;;;;;;;;5076417;28;20530;-60
2022/11/09 02:52:17;;;;;;;2.83;2.50;;;;;;;;;;5076248;28;20450;-59
2022/11/09 02:54:46;;;;;;;2.60;2.10;;;;;;;;;;5076180;28;20480;-60
2022/11/09 02:57:13;;;;;;;2.50;2.30;;;;;;;;;;5076269;28;20539;-59
2022/11/09 02:59:39;;;;;;;2.40;2.20;;;;;;;;;;5076236;28;20463;-59
2022/11/09 03:02:06;;;;;;;3.20;2.30;;;;;;;;;;5076303;28;20815;-60
2022/11/09 03:04:35;;;;;;;2.60;2.40;;;;;;;;;;5076076;28;20457;-59
2022/11/09 03:07:02;;;;;;;2.57;2.37;;;;;;;;;;5075866;28;20447;-59
2022/11/09 03:09:29;;;;;;;2.80;2.53;;;;;;;;;;5076120;28;20884;-60
2022/11/09 03:11:57;;;;;;;2.30;2.07;;;;;;;;;;5075999;28;20458;-59
2022/11/09 03:14:24;;;;;;;3.00;2.30;;;;;;;;;;5075811;28;20915;-60
2022/11/09 03:16:51;;;;;;;3.10;2.60;;;;;;;;;;5075862;28;20456;-59
2022/11/09 03:19:18;;;;;;;5.63;2.20;;;;;;;;;;5075728;28;20448;-59
2022/11/09 03:21:45;;;;;;;2.70;2.50;;;;;;;;;;5075717;28;20466;-59
2022/11/09 03:24:12;;;;;;;2.47;2.27;;;;;;;;;;5075868;28;20456;-60
2022/11/09 03:26:39;;;;;;;3.33;2.40;;;;;;;;;;5075807;28;20811;-59
2022/11/09 03:29:07;;;;;;;2.90;2.70;;;;;;;;;;5075720;28;20449;-59
2022/11/09 03:31:34;;;;;;;2.90;2.40;;;;;;;;;;5075594;28;20454;-59
2022/11/09 03:34:01;;;;;;;2.10;1.90;;;;;;;;;;5075391;28;20482;-59
2022/11/09 03:36:28;;;;;;;3.27;2.23;;;;;;;;;;5075731;28;20506;-59
2022/11/09 03:38:55;;;;;;;3.60;2.20;;;;;;;;;;5075544;28;20536;-60
2022/11/09 03:41:22;;;;;;;2.77;2.57;;;;;;;;;;5075556;28;21020;-59
2022/11/09 03:43:49;;;;;;;3.80;2.40;;;;;;;;;;5075438;28;20460;-59
2022/11/09 03:46:17;;;;;;;3.00;2.20;;;;;;;;;;5074159;28;20454;-59
2022/11/09 03:48:44;;;;;;;2.87;2.60;;;;;;;;;;5075004;28;20878;-59
2022/11/09 03:51:11;;;;;;;4.57;2.50;;;;;;;;;;5075388;28;20443;-60
2022/11/09 03:53:38;;;;;;;3.90;2.80;;;;;;;;;;5075337;28;20473;-59
2022/11/09 03:56:08;;;;;;;2.80;2.53;;;;;;;;;;5075106;28;20452;-59
2022/11/09 03:58:37;;;;;;;3.20;2.20;;;;;;;;;;5075082;28;20449;-59
2022/11/09 04:01:04;;;;;;;2.73;2.53;;;;;;;;;;5075034;28;20485;-59
2022/11/09 04:03:32;;;;;;;2.67;2.47;;;;;;;;;;5074943;28;20449;-60
2022/11/09 04:05:59;;;;;;;6.40;2.20;;;;;;;;;;5075102;28;20448;-59
2022/11/09 04:08:28;;;;;;;2.80;2.60;;;;;;;;;;5075038;28;20468;-60
2022/11/09 04:10:55;;;;;;;2.67;2.47;;;;;;;;;;5074915;28;20513;-59
2022/11/09 04:13:22;;;;;;;2.20;2.10;;;;;;;;;;5074712;28;20784;-59
2022/11/09 04:15:49;;;;;;;4.20;2.10;;;;;;;;;;5074675;28;20454;-59
2022/11/09 04:18:16;;;;;;;2.50;2.30;;;;;;;;;;5074574;28;20461;-59
2022/11/09 04:20:45;;;;;;;3.30;2.30;;;;;;;;;;5074840;28;20454;-59
2022/11/09 04:23:13;;;;;;;3.50;1.90;;;;;;;;;;5074744;28;20458;-59
2022/11/09 04:25:41;;;;;;;4.17;2.57;;;;;;;;;;5074614;28;20899;-59
2022/11/09 04:28:08;;;;;;;2.70;2.50;;;;;;;;;;5074422;28;20973;-59
2022/11/09 04:30:36;;;;;;;2.20;1.97;;;;;;;;;;5074425;28;20474;-59
2022/11/09 04:33:04;;;;;;;2.10;2.00;;;;;;;;;;5074557;28;20517;-59
2022/11/09 04:35:32;;;;;;;2.20;2.00;;;;;;;;;;5074417;28;20512;-59
2022/11/09 04:38:02;;;;;;;3.13;2.40;;;;;;;;;;5074372;28;20454;-60
2022/11/09 04:40:30;;;;;;;2.93;2.60;;;;;;;;;;5074288;28;20448;-59
2022/11/09 04:43:00;;;;;;;1.87;1.77;;;;;;;;;;5074110;28;20448;-59
2022/11/09 04:45:27;;;;;;;2.90;2.10;;;;;;;;;;5074366;28;20463;-60
2022/11/09 04:47:57;;;;;;;2.50;2.30;;;;;;;;;;5073923;28;20474;-59
2022/11/09 04:50:24;;;;;;;6.80;2.30;;;;;;;;;;5074209;28;20505;-59
2022/11/09 04:52:51;;;;;;;3.77;2.43;;;;;;;;;;5074089;28;20450;-59
2022/11/09 04:55:19;;;;;;;2.50;2.30;;;;;;;;;;5073834;28;20483;-60
2022/11/09 04:57:46;;;;;;;6.70;3.87;;;;;;;;;;5073740;28;20448;-59
2022/11/09 05:00:13;;;;;;;3.30;3.00;;;;;;;;;;5073993;28;20810;-59
2022/11/09 05:02:40;;;;;;;5.43;2.70;;;;;;;;;;5073911;28;20539;-59
2022/11/09 05:05:07;;;;;;;3.20;2.40;;;;;;;;;;5073783;28;20935;-60
2022/11/09 05:07:34;;;;;;;3.53;3.23;;;;;;;;;;5073708;28;20538;-59
2022/11/09 05:10:01;;;;;;;2.50;2.30;;;;;;;;;;5073660;28;20465;-59
2022/11/09 05:12:29;;;;;;;2.73;2.53;;;;;;;;;;5073745;28;20532;-59
2022/11/09 05:14:56;;;;;;;2.97;2.70;;;;;;;;;;5073557;28;20490;-59
2022/11/09 05:17:23;;;;;;;3.13;2.70;;;;;;;;;;5073553;28;20816;-59
2022/11/09 05:19:50;;;;;;;3.27;3.07;;;;;;;;;;5073561;28;20971;-59
2022/11/09 05:25:02;;;;;;;2.97;2.77;;;;;;;;;;5073450;28;20501;-59
2022/11/09 05:27:30;;;;;;;3.73;3.27;;;;;;;;;;5073460;28;20539;-59
2022/11/09 05:29:57;;;;;;;4.67;4.27;;;;;;;;;;5073351;28;20534;-59
2022/11/09 05:32:24;;;;;;;5.60;3.80;;;;;;;;;;5073165;28;20451;-59
2022/11/09 05:34:51;;;;;;;5.20;4.00;;;;;;;;;;5073057;28;20873;-59
2022/11/09 05:37:19;;;;;;;6.20;3.67;;;;;;;;;;5073343;28;20456;-59
2022/11/09 05:39:46;;;;;;;3.77;3.43;;;;;;;;;;5073264;28;20497;-59
2022/11/09 05:42:12;;;;;;;5.50;4.00;;;;;;;;;;5073137;28;20546;-59
2022/11/09 05:44:42;;;;;;;5.67;3.83;;;;;;;;;;5072992;28;20515;-59
2022/11/09 05:47:09;;;;;;;3.87;3.57;;;;;;;;;;5072740;28;20476;-59
2022/11/09 05:49:38;;;;;;;3.80;3.50;;;;;;;;;;5072941;28;20803;-59
2022/11/09 05:52:05;;;;;;;4.10;3.10;;;;;;;;;;5073181;28;20447;-59
2022/11/09 05:54:32;;;;;;;4.17;3.20;;;;;;;;;;5072974;28;20481;-59
2022/11/09 05:57:00;;;;;;;3.80;3.10;;;;;;;;;;5072938;28;20534;-59
2022/11/09 05:59:27;;;;;;;3.30;3.00;;;;;;;;;;5072856;28;20456;-59
2022/11/09 06:01:55;;;;;;;3.50;2.53;;;;;;;;;;5072588;28;20446;-59
2022/11/09 06:04:22;;;;;;;3.60;3.30;;;;;;;;;;5072919;28;20454;-59
2022/11/09 06:06:49;;;;;;;4.30;3.00;;;;;;;;;;5072662;28;20973;-59
2022/11/09 06:09:16;;;;;;;3.80;3.30;;;;;;;;;;5071984;28;20452;-59
2022/11/09 06:11:42;;;;;;;4.17;2.97;;;;;;;;;;5072783;28;20538;-59
2022/11/09 06:14:09;;;;;;;3.00;2.77;;;;;;;;;;5072578;28;20448;-59
2022/11/09 06:16:37;;;;;;;5.40;3.57;;;;;;;;;;5072596;28;20938;-59
2022/11/09 06:19:06;;;;;;;2.80;2.60;;;;;;;;;;5072608;28;20492;-60
2022/11/09 06:21:32;;;;;;;2.63;2.43;;;;;;;;;;5072760;28;20547;-59
2022/11/09 06:23:59;;;;;;;2.50;2.30;;;;;;;;;;5072680;28;20449;-59
2022/11/09 06:26:26;;;;;;;3.53;3.23;;;;;;;;;;5072608;28;20543;-59
2022/11/09 06:28:53;;;;;;;3.53;3.33;;;;;;;;;;5072368;28;20500;-59
2022/11/09 06:31:20;;;;;;;4.23;3.13;;;;;;;;;;5072654;28;20466;-59
2022/11/09 06:33:47;;;;;;;3.07;2.83;;;;;;;;;;5072746;28;20445;-59
2022/11/09 06:36:15;;;;;;;3.20;2.83;;;;;;;;;;5072324;28;21014;-59
2022/11/09 06:38:42;;;;;;;4.50;2.90;;;;;;;;;;5072424;28;20474;-59
2022/11/09 06:41:11;;;;;;;3.27;3.07;;;;;;;;;;5072454;28;20540;-60
2022/11/09 06:43:40;;;;;;;4.50;2.80;;;;;;;;;;5072370;28;20448;-60
2022/11/09 06:46:09;;;;;;;2.93;2.73;;;;;;;;;;5072534;28;20458;-59
2022/11/09 06:48:36;;;;;;;4.07;3.47;;;;;;;;;;5072148;28;20478;-59
2022/11/09 06:51:04;;;;;;;4.50;3.33;;;;;;;;;;5072300;28;20529;-59
2022/11/09 06:53:32;;;;;;;3.20;2.87;;;;;;;;;;5072323;28;20462;-59
2022/11/09 06:55:59;;;;;;;3.00;2.80;;;;;;;;;;5072117;28;20518;-59
2022/11/09 06:58:27;;;;;;;3.23;2.87;;;;;;;;;;5072083;28;20448;-59
2022/11/09 07:00:54;;;;;;;3.50;3.30;;;;;;;;;;5072370;28;20456;-59
2022/11/09 07:03:22;;;;;;;3.40;3.10;;;;;;;;;;5072442;28;20455;-59
2022/11/09 07:05:49;;;;;;;4.10;3.37;;;;;;;;;;5072324;28;20449;-60
2022/11/09 07:08:16;;;;;;;4.33;3.93;;;;;;;;;;5072175;28;20448;-59
2022/11/09 07:10:45;;;;;;;4.63;3.93;;;;;;;;;;5071939;28;20452;-59
2022/11/09 07:13:12;;;;;;;3.87;3.57;;;;;;;;;;5072305;28;20479;-59
2022/11/09 07:15:40;;;;;;;3.60;3.30;;;;;;;;;;5072303;28;20570;-60
2022/11/09 07:18:07;;;;;;;5.90;3.20;;;;;;;;;;5072253;28;20455;-59
2022/11/09 07:20:35;;;;;;;4.57;3.30;;;;;;;;;;5075018;28;20538;-59
2022/11/09 07:23:02;;;;;;;3.20;3.00;;;;;;;;;;5075706;28;20743;-59
2022/11/09 07:25:29;;;;;;;4.10;3.67;;;;;;;;;;5075567;28;20454;-59
2022/11/09 07:28:02;;;;;;;7.80;3.60;;;;;;;;;;5075740;28;20451;-59
2022/11/09 07:30:29;;;;;;;4.00;3.67;;;;;;;;;;5075665;28;20466;-59
2022/11/09 07:32:58;;;;;;;3.60;3.30;;;;;;;;;;5075603;28;20447;-59
2022/11/09 07:35:25;;;;;;;5.40;3.90;;;;;;;;;;5075341;28;20551;-59
2022/11/09 07:37:54;;;;;;;6.10;4.80;;;;;;;;;;5075231;28;20451;-59
2022/11/09 07:40:21;;;;;;;5.30;4.47;;;;;;;;;;5075458;28;20456;-59
2022/11/09 07:42:48;;;;;;;7.60;3.97;;;;;;;;;;5075329;28;20873;-59
2022/11/09 07:45:18;;;;;;;5.73;4.17;;;;;;;;;;5075307;28;20455;-59
2022/11/09 07:47:45;;;;;;;4.90;4.43;;;;;;;;;;5075049;28;21082;-60
2022/11/09 07:50:12;;;;;;;5.43;3.40;;;;;;;;;;5074695;28;20471;-59
2022/11/09 07:52:39;;;;;;;4.13;3.50;;;;;;;;;;5075204;28;20452;-59
2022/11/09 07:55:06;;;;;;;3.83;3.53;;;;;;;;;;5074747;28;20488;-59
2022/11/09 07:57:33;;;;;;;4.90;4.40;;;;;;;;;;5074378;28;20443;-60
2022/11/09 08:00:00;;;;;;;6.07;5.47;;;;;;;;;;5075075;28;20282;-58
2022/11/09 08:02:30;;;;;;;4.70;4.30;;;;;;;;;;5074914;28;20539;-59
2022/11/09 08:04:57;;;;;;;6.10;5.20;;;;;;;;;;5074619;28;20453;-59
2022/11/09 08:07:24;;;;;;;9.10;8.30;;;;;;;;;;5074788;28;20453;-60
2022/11/09 08:09:51;;;;;;;6.67;6.07;;;;;;;;;;5074974;28;20538;-59
2022/11/09 08:12:17;;;;;;;14.77;13.27;;;;;;;;;;5073710;28;20458;-62
2022/11/09 08:14:44;;;;;;;41.07;32.50;;;;;;;;;;5074553;28;20451;-62
2022/11/09 08:17:11;;;;;;;33.40;26.93;;;;;;;;;;5074483;28;20452;-63
2022/11/09 08:19:39;;;;;;;15.50;11.70;;;;;;;;;;5075701;28;20457;-63
2022/11/09 08:22:08;;;;;;;32.50;13.73;;;;;;;;;;5085420;28;20452;-65
2022/11/09 08:24:35;;;;;;;15.53;11.03;;;;;;;;;;5075751;28;20571;-64
2022/11/09 08:27:02;;;;;;;22.03;14.60;;;;;;;;;;5089724;28;20466;-62
2022/11/09 08:29:29;;;;;;;24.60;17.17;;;;;;;;;;5091200;28;20816;-62
2022/11/09 08:31:56;;;;;;;51.13;30.73;;;;;;;;;;5093956;28;20446;-61
2022/11/09 08:34:23;;;;;;;19.50;12.97;;;;;;;;;;5088293;28;20452;-61
2022/11/09 08:36:51;;;;;;;9.43;6.30;;;;;;;;;;5074248;28;20537;-61
2022/11/09 08:39:21;;;;;;;7.97;6.03;;;;;;;;;;5092471;28;21013;-59
2022/11/09 08:41:48;;;;;;;7.43;5.50;;;;;;;;;;5089444;28;20885;-64
2022/11/09 08:44:15;;;;;;;5.20;4.70;;;;;;;;;;5085329;28;20443;-60
2022/11/09 08:46:42;;;;;;;7.47;6.03;;;;;;;;;;5093574;28;20615;-59
2022/11/09 08:49:09;;;;;;;8.77;6.93;;;;;;;;;;5090593;28;20464;-60
2022/11/09 08:51:36;;;;;;;6.43;5.50;;;;;;;;;;5077289;28;20451;-62
2022/11/09 08:54:04;;;;;;;8.50;5.50;;;;;;;;;;5086274;28;20489;-64
2022/11/09 08:56:31;;;;;;;5.60;5.10;;;;;;;;;;5101681;28;20475;-60
2022/11/09 08:58:58;;;;;;;7.40;5.33;;;;;;;;;;5094510;28;20775;-59
2022/11/09 09:01:25;;;;;;;6.40;5.80;;;;;;;;;;5091512;28;20467;-61
2022/11/09 09:03:52;;;;;;;6.43;5.43;;;;;;;;;;5082619;28;20476;-63
2022/11/09 09:06:18;;;;;;;6.20;5.20;;;;;;;;;;5092674;28;20447;-62
2022/11/09 09:08:47;;;;;;;8.30;5.80;;;;;;;;;;5073543;28;20489;-62
2022/11/09 09:11:16;;;;;;;5.43;4.93;;;;;;;;;;5078071;28;20982;-59
2022/11/09 09:13:42;;;;;;;6.43;5.57;;;;;;;;;;5073404;28;20505;-59
2022/11/09 09:16:10;;;;;;;6.13;5.53;;;;;;;;;;5078682;28;21064;-61
2022/11/09 09:18:37;;;;;;;6.27;5.67;;;;;;;;;;5078380;28;20481;-60
2022/11/09 09:21:06;;;;;;;7.83;5.30;;;;;;;;;;5076480;28;20458;-60
2022/11/09 09:23:32;;;;;;;6.43;5.53;;;;;;;;;;5081444;28;20444;-60
2022/11/09 09:25:59;;;;;;;5.50;4.80;;;;;;;;;;5081550;28;20535;-60
2022/11/09 09:28:28;;;;;;;7.53;5.33;;;;;;;;;;5088058;28;20840;-61
2022/11/09 09:30:58;;;;;;;5.33;4.93;;;;;;;;;;5073955;28;20543;-62
2022/11/09 09:33:25;;;;;;;7.30;4.63;;;;;;;;;;5072920;28;20462;-62
2022/11/09 09:35:52;;;;;;;7.13;4.57;;;;;;;;;;5076518;28;20514;-57
2022/11/09 09:38:19;;;;;;;5.97;4.93;;;;;;;;;;5087510;28;20453;-59
2022/11/09 09:40:51;;;;;;;4.70;4.30;;;;;;;;;;5087277;28;20541;-59
2022/11/09 09:43:28;;;;;;;6.57;5.17;;;;;;;;;;5089112;28;20479;-56
2022/11/09 09:45:58;;;;;;;4.50;4.10;;;;;;;;;;5089660;28;20887;-65
2022/11/09 09:48:28;;;;;;;9.20;5.50;;;;;;;;;;5073625;28;20489;-62
2022/11/09 09:50:58;;;;;;;5.40;4.90;;;;;;;;;;5072907;28;20455;-63
2022/11/09 09:53:32;;;;;;;5.30;4.80;;;;;;;;;;5073735;28;20440;-62
2022/11/09 09:56:03;;;;;;;8.33;5.37;;;;;;;;;;5092816;28;20472;-59
2022/11/09 09:58:30;;;;;;;5.40;4.90;;;;;;;;;;5089210;28;20459;-58
2022/11/09 10:01:00;;;;;;;6.03;5.00;;;;;;;;;;5078138;28;20524;-65
2022/11/09 10:03:27;;;;;;;6.70;5.47;;;;;;;;;;5092778;28;20459;-59
2022/11/09 10:05:58;;;;;;;5.57;4.57;;;;;;;;;;5093275;28;20451;-59
2022/11/09 10:08:31;;;;;;;5.90;5.30;;;;;;;;;;5093126;28;20541;-59
2022/11/09 10:11:06;;;;;;;6.20;5.60;;;;;;;;;;5093011;28;20457;-59
2022/11/09 10:13:41;;;;;;;6.17;5.63;;;;;;;;;;5093043;28;21039;-59
2022/11/09 10:16:12;;;;;;;6.03;4.80;;;;;;;;;;5077941;28;20478;-59
2022/11/09 10:18:43;;;;;;;6.63;6.03;;;;;;;;;;5084805;28;20454;-59
2022/11/09 10:21:16;;;;;;;5.63;5.13;;;;;;;;;;5087451;28;20956;-59
2022/11/09 10:23:52;;;;;;;6.67;4.97;;;;;;;;;;5081350;28;20786;-66
2022/11/09 10:26:21;;;;;;;5.57;4.93;;;;;;;;;;5074299;28;20455;-60
2022/11/09 10:28:54;;;;;;;5.97;5.23;;;;;;;;;;5075393;28;20506;-62
2022/11/09 10:31:23;;;;;;;6.97;5.63;;;;;;;;;;5082808;28;20443;-61
2022/11/09 10:33:54;;;;;;;8.30;5.80;;;;;;;;;;5092075;28;20466;-61
2022/11/09 10:36:24;;;;;;;5.53;4.97;;;;;;;;;;5085792;28;20487;-63
2022/11/09 10:38:52;;;;;;;9.20;6.00;;;;;;;;;;5111671;28;20446;-60
2022/11/09 10:41:26;;;;;;;8.63;5.10;;;;;;;;;;5087893;28;20455;-59
2022/11/09 10:43:53;;;;;;;5.83;4.30;;;;;;;;;;5071944;28;20811;-59
2022/11/09 10:46:20;;;;;;;8.77;4.90;;;;;;;;;;5070957;28;20940;-59
2022/11/09 10:48:48;;;;;;;5.23;4.73;;;;;;;;;;5071907;28;20473;-59
2022/11/09 10:51:32;;;;;;;6.10;4.33;;;;;;;;;;5075371;28;20452;-58
2022/11/09 10:54:16;;;;;;;5.30;4.90;;;;;;;;;;5086226;28;20449;-56
2022/11/09 10:56:47;;;;;;;5.07;4.67;;;;;;;;;;5087269;28;20467;-58
2022/11/09 10:59:35;;;;;;;4.67;4.30;;;;;;;;;;5082627;28;20557;-58
2022/11/09 11:02:02;;;;;;;5.73;5.23;;;;;;;;;;5075471;28;20460;-58
2022/11/09 11:04:31;;;;;;;6.60;4.97;;;;;;;;;;5086782;28;20492;-58
2022/11/09 11:06:58;;;;;;;5.07;4.67;;;;;;;;;;5075507;28;20451;-58
2022/11/09 11:09:24;;;;;;;5.40;4.90;;;;;;;;;;5075066;28;20459;-58
2022/11/09 11:12:10;;;;;;;5.70;5.20;;;;;;;;;;5077362;28;20467;-58
2022/11/09 11:14:42;;;;;;;6.90;6.40;;;;;;;;;;5076544;28;20458;-58
2022/11/09 11:17:21;;;;;;;5.07;4.57;;;;;;;;;;5089466;28;20475;-58
2022/11/09 11:19:49;;;;;;;5.60;5.10;;;;;;;;;;5075316;28;20481;-59
2022/11/09 11:22:21;;;;;;;4.70;4.30;;;;;;;;;;5076770;28;20480;-58
2022/11/09 11:24:52;;;;;;;8.40;5.10;;;;;;;;;;5078212;28;20806;-60
2022/11/09 11:27:22;;;;;;;7.50;5.20;;;;;;;;;;5083667;28;20591;-60
2022/11/09 11:29:52;;;;;;;5.07;4.60;;;;;;;;;;5087357;28;20548;-60
2022/11/09 11:32:20;;;;;;;4.90;4.50;;;;;;;;;;5075348;28;20477;-59
2022/11/09 11:34:47;;;;;;;5.33;4.93;;;;;;;;;;5085418;28;20488;-62
2022/11/09 11:37:23;;;;;;;6.00;5.03;;;;;;;;;;5088261;28;20490;-63
2022/11/09 11:39:55;;;;;;;5.87;5.00;;;;;;;;;;5090348;28;20456;-61
2022/11/09 11:42:33;;;;;;;6.10;5.13;;;;;;;;;;5095613;28;20450;-63
2022/11/09 11:45:07;;;;;;;5.90;5.30;;;;;;;;;;5082694;28;20535;-59
2022/11/09 11:47:40;;;;;;;5.33;4.47;;;;;;;;;;5083411;28;20479;-58
2022/11/09 11:50:16;;;;;;;5.30;4.90;;;;;;;;;;5095341;28;20469;-60
2022/11/09 11:52:51;;;;;;;4.87;4.47;;;;;;;;;;5081638;28;20455;-59
2022/11/09 11:55:26;;;;;;;5.40;4.90;;;;;;;;;;5075286;28;20494;-59
2022/11/09 11:58:01;;;;;;;8.30;5.50;;;;;;;;;;5077888;28;20482;-59
2022/11/09 12:00:30;;;;;;;5.27;4.57;;;;;;;;;;5074913;28;20809;-59
2022/11/09 12:03:14;;;;;;;5.60;4.60;;;;;;;;;;5075667;28;20964;-60
2022/11/09 12:05:50;;;;;;;6.70;5.17;;;;;;;;;;5072677;28;20797;-60
2022/11/09 12:08:22;;;;;;;5.10;4.40;;;;;;;;;;5101281;28;20808;-61
2022/11/09 12:10:52;;;;;;;5.77;4.70;;;;;;;;;;5078330;28;21037;-62
2022/11/09 12:13:29;;;;;;;4.80;3.80;;;;;;;;;;5091882;28;20451;-60
2022/11/09 12:16:00;;;;;;;4.63;3.97;;;;;;;;;;5097288;28;20870;-60
2022/11/09 12:18:37;;;;;;;4.00;3.70;;;;;;;;;;5093607;28;20482;-59
2022/11/09 12:21:12;;;;;;;4.33;4.00;;;;;;;;;;5081846;28;20460;-59
2022/11/09 12:23:44;;;;;;;3.77;3.47;;;;;;;;;;5094674;28;20455;-62
2022/11/09 12:26:16;;;;;;;4.33;3.93;;;;;;;;;;5085469;28;20453;-59
2022/11/09 12:28:48;;;;;;;3.67;3.40;;;;;;;;;;5092596;28;20454;-59
2022/11/09 12:31:23;;;;;;;5.00;3.50;;;;;;;;;;5084289;28;20454;-59
2022/11/09 12:33:53;;;;;;;3.23;3.03;;;;;;;;;;5074233;28;20455;-59
2022/11/09 12:36:23;;;;;;;3.53;3.23;;;;;;;;;;5081286;28;20957;-58
2022/11/09 12:39:04;;;;;;;3.80;3.40;;;;;;;;;;5078085;28;20556;-58
2022/11/09 12:41:34;;;;;;;3.63;2.63;;;;;;;;;;5085812;28;20790;-60
2022/11/09 12:44:02;;;;;;;3.30;3.03;;;;;;;;;;5079367;28;20539;-59
2022/11/09 12:46:32;;;;;;;7.37;4.30;;;;;;;;;;5073744;28;20448;-56
2022/11/09 12:49:02;;;;;;;4.60;3.20;;;;;;;;;;5094450;28;20481;-59
2022/11/09 12:51:31;;;;;;;4.20;3.90;;;;;;;;;;5073442;28;20576;-59
2022/11/09 12:53:59;;;;;;;5.53;4.93;;;;;;;;;;5073616;28;20447;-60
2022/11/09 12:56:29;;;;;;;4.37;3.30;;;;;;;;;;5072891;28;20464;-63
2022/11/09 12:59:19;;;;;;;4.23;3.63;;;;;;;;;;5083800;28;20483;-59
2022/11/09 13:01:48;;;;;;;4.63;3.17;;;;;;;;;;5073722;28;20881;-59
2022/11/09 13:04:17;;;;;;;2.00;1.90;;;;;;;;;;5088689;28;20974;-62
2022/11/09 13:07:04;;;;;;;2.60;2.40;;;;;;;;;;5092610;28;20541;-61
2022/11/09 13:09:31;;;;;;;2.10;1.97;;;;;;;;;;5073993;28;20450;-62
2022/11/09 13:12:00;;;;;;;1.93;1.80;;;;;;;;;;5072822;28;20455;-59
2022/11/09 13:14:37;;;;;;;2.53;1.90;;;;;;;;;;5073356;28;20477;-61
2022/11/09 13:17:19;;;;;;;3.23;1.57;;;;;;;;;;5072340;28;20473;-61
2022/11/09 13:19:50;;;;;;;2.63;2.43;;;;;;;;;;5072369;28;20451;-63
2022/11/09 13:22:32;;;;;;;2.20;2.07;;;;;;;;;;5077786;28;20503;-62
2022/11/09 13:25:01;;;;;;;1.87;1.70;;;;;;;;;;5084348;28;20985;-61
2022/11/09 13:27:41;;;;;;;4.23;1.80;;;;;;;;;;5081944;28;20452;-58
2022/11/09 13:30:27;;;;;;;1.80;1.70;;;;;;;;;;5076299;28;20541;-59
2022/11/09 13:33:16;;;;;;;2.13;1.70;;;;;;;;;;5089784;28;20484;-58
2022/11/09 13:35:58;;;;;;;2.30;2.10;;;;;;;;;;5093382;28;20793;-62
2022/11/09 13:38:25;;;;;;;1.83;1.70;;;;;;;;;;5093070;28;20515;-62
2022/11/09 13:40:53;;;;;;;3.37;1.67;;;;;;;;;;5091142;28;20504;-61
2022/11/09 13:43:23;;;;;;;2.33;1.70;;;;;;;;;;5072514;28;20451;-63
2022/11/09 13:45:52;;;;;;;2.00;1.80;;;;;;;;;;5072825;28;20533;-64
2022/11/09 13:48:26;;;;;;;2.40;1.60;;;;;;;;;;5072662;28;20467;-59
2022/11/09 13:50:55;;;;;;;1.70;1.60;;;;;;;;;;5072970;28;20956;-59
2022/11/09 13:53:31;;;;;;;3.70;1.97;;;;;;;;;;5072935;28;20448;-59
2022/11/09 13:55:58;;;;;;;2.40;1.70;;;;;;;;;;5072873;28;20909;-59
2022/11/09 13:58:29;;;;;;;3.07;2.67;;;;;;;;;;5110200;28;20477;-58
2022/11/09 14:00:56;;;;;;;1.80;1.70;;;;;;;;;;5082759;28;20541;-64
2022/11/09 14:03:26;;;;;;;4.93;2.07;;;;;;;;;;5072433;28;20458;-60
2022/11/09 14:05:54;;;;;;;1.90;1.80;;;;;;;;;;5072772;28;20457;-60
2022/11/09 14:08:22;;;;;;;3.20;1.83;;;;;;;;;;5093515;28;20455;-58
2022/11/09 14:11:01;;;;;;;4.60;2.40;;;;;;;;;;5093008;28;20453;-66
2022/11/09 14:13:40;;;;;;;1.60;1.50;;;;;;;;;;5081852;28;20817;-65
2022/11/09 14:16:11;;;;;;;2.30;2.13;;;;;;;;;;5072129;28;20851;-64
2022/11/09 14:18:45;;;;;;;5.40;2.40;;;;;;;;;;5071955;28;20592;-64
2022/11/09 14:21:22;;;;;;;2.30;2.13;;;;;;;;;;5072739;28;20449;-64
2022/11/09 14:23:49;;;;;;;4.13;2.07;;;;;;;;;;5072372;28;20454;-64
2022/11/09 14:26:18;;;;;;;3.10;2.87;;;;;;;;;;5072198;28;20887;-64
2022/11/09 14:28:46;;;;;;;2.50;2.30;;;;;;;;;;5072789;28;20479;-64
2022/11/09 14:31:22;;;;;;;5.23;2.53;;;;;;;;;;5076854;28;20455;-64
2022/11/09 14:33:58;;;;;;;8.23;1.90;;;;;;;;;;5076740;28;20446;-65
2022/11/09 14:36:25;;;;;;;2.47;2.27;;;;;;;;;;5076574;28;20449;-64
2022/11/09 14:38:52;;;;;;;2.27;2.07;;;;;;;;;;5080717;28;20576;-64
2022/11/09 14:41:21;;;;;;;2.30;2.07;;;;;;;;;;5090971;28;20445;-59
2022/11/09 14:43:50;;;;;;;2.87;2.00;;;;;;;;;;5096483;28;20852;-59
2022/11/09 14:46:19;;;;;;;4.60;3.73;;;;;;;;;;5095368;28;20544;-59
2022/11/09 14:48:50;;;;;;;3.00;2.80;;;;;;;;;;5096276;28;20555;-59
2022/11/09 14:51:17;;;;;;;4.63;3.03;;;;;;;;;;5096601;28;20537;-59
2022/11/09 14:53:44;;;;;;;3.00;2.70;;;;;;;;;;5096759;28;20553;-59
2022/11/09 14:56:14;;;;;;;3.73;2.60;;;;;;;;;;5096527;28;20971;-58
2022/11/09 14:58:44;;;;;;;2.03;1.93;;;;;;;;;;5096425;28;20527;-58